Time;durP1;ratioP1;P1;durP2;ratioP2;P2;SDS_P1;SDS_P2;PMS_P1;PMS_P2;Temp;Humidity;BMP_temperature;BMP_pressure;BME280_temperature;BME280_humidity;BME280_pressure;Samples;Min_cycle;Max_cycle;Signal;HPM_P1;HPM_P2
2022/04/30 00:02:09;;;;;;;2.70;2.60;;;19.00;43.00;;;;;;5060120;28;20509;-57
2022/04/30 00:04:40;;;;;;;2.63;2.50;;;19.00;43.00;;;;;;5063202;28;20522;-57
2022/04/30 00:07:06;;;;;;;2.70;2.50;;;19.00;43.00;;;;;;5059034;28;20541;-58
2022/04/30 00:09:32;;;;;;;3.00;2.80;;;19.00;43.00;;;;;;5055462;28;20484;-57
2022/04/30 00:11:59;;;;;;;2.97;2.87;;;19.00;43.00;;;;;;5062353;28;20443;-58
2022/04/30 00:14:25;;;;;;;3.17;2.97;;;19.00;42.90;;;;;;5065878;28;20478;-57
2022/04/30 00:16:51;;;;;;;2.90;2.70;;;19.00;43.00;;;;;;5064115;28;20942;-58
2022/04/30 00:19:17;;;;;;;2.77;2.57;;;19.00;43.00;;;;;;5056939;28;20424;-57
2022/04/30 00:21:43;;;;;;;2.90;2.80;;;19.00;42.90;;;;;;5059666;28;20283;-58
2022/04/30 00:24:09;;;;;;;2.97;2.63;;;19.00;43.00;;;;;;5056921;28;20814;-58
2022/04/30 00:26:34;;;;;;;2.60;2.50;;;19.00;43.00;;;;;;5061016;28;20231;-57
2022/04/30 00:29:00;;;;;;;2.97;2.77;;;19.00;42.90;;;;;;5059720;28;20276;-57
2022/04/30 00:31:26;;;;;;;2.80;2.60;;;19.00;43.70;;;;;;5063168;28;20217;-58
2022/04/30 00:33:53;;;;;;;2.70;2.50;;;19.00;42.90;;;;;;5062907;28;20455;-57
2022/04/30 00:36:18;;;;;;;2.60;2.50;;;19.00;43.00;;;;;;5057940;28;20218;-57
2022/04/30 00:38:44;;;;;;;2.70;2.50;;;19.00;42.90;;;;;;5062789;28;20484;-57
2022/04/30 00:41:10;;;;;;;2.60;2.50;;;19.00;42.90;;;;;;5058423;28;20588;-57
2022/04/30 00:43:47;;;;;;;2.63;2.43;;;19.00;42.90;;;;;;5062254;28;20225;-57
2022/04/30 00:46:17;;;;;;;3.20;3.00;;;19.00;42.90;;;;;;5061681;28;20481;-57
2022/04/30 00:48:44;;;;;;;2.93;2.83;;;19.00;42.90;;;;;;5090431;28;20850;-57
2022/04/30 00:51:12;;;;;;;2.60;2.50;;;19.00;43.00;;;;;;5069567;28;20502;-57
2022/04/30 00:53:44;;;;;;;2.90;2.70;;;19.00;43.00;;;;;;5054408;28;20429;-57
2022/04/30 00:56:12;;;;;;;2.70;2.60;;;19.00;42.90;;;;;;5059737;28;20455;-57
2022/04/30 00:58:40;;;;;;;2.60;2.50;;;19.00;42.90;;;;;;5055794;28;20452;-57
2022/04/30 01:01:06;;;;;;;3.30;3.00;;;19.00;42.90;;;;;;5058807;28;20457;-57
2022/04/30 01:03:31;;;;;;;2.63;2.53;;;19.00;42.90;;;;;;5060864;28;20858;-57
2022/04/30 01:05:59;;;;;;;2.70;2.50;;;19.00;42.90;;;;;;5059891;28;20694;-59
2022/04/30 01:08:28;;;;;;;2.50;2.40;;;18.90;42.70;;;;;;5054777;28;20570;-58
2022/04/30 01:10:56;;;;;;;4.00;2.50;;;19.00;42.90;;;;;;5058700;28;20428;-57
2022/04/30 01:13:22;;;;;;;2.77;2.67;;;19.00;42.80;;;;;;5060147;28;20422;-58
2022/04/30 01:15:47;;;;;;;2.63;2.40;;;19.00;42.80;;;;;;5059758;28;20520;-57
2022/04/30 01:18:13;;;;;;;3.57;3.37;;;18.90;42.70;;;;;;5063047;28;20240;-57
2022/04/30 01:20:42;;;;;;;3.37;3.17;;;18.90;42.80;;;;;;5056648;28;20230;-57
2022/04/30 01:23:08;;;;;;;2.50;2.40;;;18.90;42.70;;;;;;5063969;28;20640;-57
2022/04/30 01:25:34;;;;;;;2.77;2.57;;;18.90;42.70;;;;;;5059953;28;20529;-57
2022/04/30 01:28:01;;;;;;;3.00;2.70;;;18.90;42.70;;;;;;5061563;28;20526;-58
2022/04/30 01:30:27;;;;;;;2.63;2.53;;;18.90;42.70;;;;;;5056347;28;20298;-57
2022/04/30 01:38:22;;;;;;;2.93;2.73;;;18.90;42.70;;;;;;5083200;27;20436;-57
2022/04/30 01:40:48;;;;;;;2.60;2.40;;;18.90;42.70;;;;;;5078612;27;20428;-57
2022/04/30 01:43:15;;;;;;;2.40;2.30;;;18.90;42.60;;;;;;5079339;27;20208;-56
2022/04/30 01:45:40;;;;;;;2.43;2.23;;;18.90;42.70;;;;;;5079807;27;20244;-58
2022/04/30 01:48:09;;;;;;;2.90;2.63;;;18.90;42.60;;;;;;5080704;28;20937;-57
2022/04/30 01:50:35;;;;;;;2.37;2.27;;;18.90;42.60;;;;;;5078926;27;20225;-58
2022/04/30 01:53:01;;;;;;;2.73;2.60;;;18.90;42.70;;;;;;5076593;27;20817;-57
2022/04/30 01:55:27;;;;;;;2.67;2.57;;;18.90;42.60;;;;;;5079570;28;20424;-57
2022/04/30 01:57:52;;;;;;;2.63;2.53;;;18.90;42.60;;;;;;5080342;27;20220;-58
2022/04/30 02:00:20;;;;;;;3.57;2.70;;;18.90;42.60;;;;;;5078787;27;20293;-57
2022/04/30 02:02:48;;;;;;;2.57;2.47;;;18.90;42.60;;;;;;5080108;27;20248;-57
2022/04/30 02:05:14;;;;;;;2.40;2.30;;;18.90;42.60;;;;;;5075157;28;20970;-57
2022/04/30 02:08:03;;;;;;;2.37;2.27;;;18.90;42.60;;;;;;5077538;28;20445;-57
2022/04/30 02:10:29;;;;;;;2.10;2.00;;;18.90;42.60;;;;;;5079248;28;20446;-57
2022/04/30 02:12:55;;;;;;;2.43;2.33;;;18.90;42.60;;;;;;5076227;28;20425;-57
2022/04/30 02:15:22;;;;;;;3.10;2.90;;;18.90;43.30;;;;;;5076104;28;20478;-57
2022/04/30 02:17:49;;;;;;;2.37;2.27;;;18.90;42.60;;;;;;5080473;28;20309;-57
2022/04/30 02:20:22;;;;;;;2.33;2.23;;;18.90;42.60;;;;;;5080086;28;20951;-57
2022/04/30 02:22:56;;;;;;;2.53;2.43;;;18.90;42.50;;;;;;5078330;28;20446;-58
2022/04/30 02:25:22;;;;;;;2.57;2.47;;;18.90;42.60;;;;;;5081281;28;20571;-57
2022/04/30 02:27:51;;;;;;;2.90;2.70;;;18.90;42.60;;;;;;5076312;28;20841;-57
2022/04/30 02:30:18;;;;;;;2.37;2.17;;;18.90;42.60;;;;;;5079257;28;20434;-57
2022/04/30 02:32:49;;;;;;;2.30;2.20;;;18.90;42.60;;;;;;5075561;28;20553;-57
2022/04/30 02:35:19;;;;;;;2.43;2.33;;;18.90;42.50;;;;;;5079457;28;20966;-57
2022/04/30 02:37:48;;;;;;;2.90;2.70;;;18.90;42.50;;;;;;5078289;28;20534;-57
2022/04/30 02:40:17;;;;;;;2.60;2.50;;;18.90;42.50;;;;;;5080286;28;20443;-57
2022/04/30 02:42:44;;;;;;;3.20;3.00;;;18.90;42.50;;;;;;5077019;28;20421;-57
2022/04/30 02:45:11;;;;;;;2.40;2.20;;;18.90;42.50;;;;;;5075871;28;20447;-57
2022/04/30 02:47:38;;;;;;;2.50;2.33;;;18.90;42.50;;;;;;5078483;28;20781;-57
2022/04/30 02:50:06;;;;;;;2.53;2.33;;;18.90;42.50;;;;;;5077368;28;20425;-57
2022/04/30 02:52:32;;;;;;;2.73;2.53;;;18.90;42.40;;;;;;5076079;28;20917;-57
2022/04/30 02:54:58;;;;;;;2.10;2.00;;;18.90;43.20;;;;;;5077042;28;20507;-57
2022/04/30 02:57:23;;;;;;;2.73;2.63;;;18.90;42.50;;;;;;5081263;28;20300;-57
2022/04/30 02:59:55;;;;;;;2.60;2.43;;;18.90;42.50;;;;;;5080176;28;20224;-57
2022/04/30 03:02:23;;;;;;;2.27;2.17;;;18.90;42.50;;;;;;5078813;28;20684;-57
2022/04/30 03:04:53;;;;;;;2.37;2.27;;;18.90;42.40;;;;;;5075128;28;20532;-57
2022/04/30 03:07:21;;;;;;;2.27;2.17;;;18.90;42.40;;;;;;5079400;28;20923;-57
2022/04/30 03:09:47;;;;;;;2.00;1.90;;;18.90;42.50;;;;;;5079491;28;20505;-58
2022/04/30 03:12:14;;;;;;;2.40;2.30;;;18.90;42.40;;;;;;5076504;28;20458;-57
2022/04/30 03:14:41;;;;;;;2.80;2.60;;;18.90;42.40;;;;;;5077008;28;20228;-57
2022/04/30 03:22:36;;;;;;;2.60;2.50;;;18.90;42.30;;;;;;5074786;28;20512;-56
2022/04/30 03:25:02;;;;;;;3.50;2.50;;;18.90;42.40;;;;;;5078303;28;20451;-57
2022/04/30 03:27:27;;;;;;;2.47;2.37;;;18.90;42.30;;;;;;5075366;28;20271;-58
2022/04/30 03:29:53;;;;;;;2.63;2.43;;;18.90;42.30;;;;;;5076831;28;20450;-57
2022/04/30 03:32:20;;;;;;;2.57;2.37;;;18.90;42.30;;;;;;5083507;28;20218;-57
2022/04/30 03:34:46;;;;;;;2.20;2.07;;;18.90;42.30;;;;;;5078644;28;20229;-57
2022/04/30 03:37:13;;;;;;;2.47;2.37;;;18.90;42.30;;;;;;5077025;28;20938;-57
2022/04/30 03:39:39;;;;;;;2.20;2.10;;;18.90;42.30;;;;;;5075977;28;20439;-57
2022/04/30 03:42:05;;;;;;;2.67;2.53;;;18.90;42.30;;;;;;5078132;28;20442;-57
2022/04/30 03:44:31;;;;;;;2.50;2.40;;;18.90;42.30;;;;;;5076574;28;20221;-57
2022/04/30 03:46:57;;;;;;;2.70;2.50;;;18.90;42.20;;;;;;5078439;28;20845;-57
2022/04/30 03:49:23;;;;;;;2.50;2.40;;;18.90;42.20;;;;;;5055417;28;20445;-57
2022/04/30 03:51:48;;;;;;;2.00;1.90;;;18.90;42.20;;;;;;5057365;28;20725;-57
2022/04/30 03:54:14;;;;;;;2.33;2.23;;;18.90;42.20;;;;;;5053971;28;20219;-57
2022/04/30 03:56:39;;;;;;;2.10;2.00;;;18.90;42.20;;;;;;5060996;28;20242;-57
2022/04/30 03:59:05;;;;;;;2.40;2.30;;;18.90;42.20;;;;;;5056968;28;20698;-57
2022/04/30 04:01:31;;;;;;;2.07;1.90;;;18.90;42.20;;;;;;5091237;28;20256;-58
2022/04/30 04:04:00;;;;;;;2.73;2.53;;;18.90;42.10;;;;;;5055220;28;20304;-57
2022/04/30 04:06:26;;;;;;;2.10;2.00;;;18.90;42.20;;;;;;5058298;28;20230;-57
2022/04/30 04:08:52;;;;;;;2.10;2.00;;;18.90;42.20;;;;;;5051975;28;20452;-57
2022/04/30 04:11:18;;;;;;;2.50;2.40;;;18.90;42.10;;;;;;5059988;28;20229;-57
2022/04/30 04:19:13;;;;;;;2.23;2.13;;;18.80;42.10;;;;;;5060036;28;20444;-57
2022/04/30 04:21:39;;;;;;;2.17;2.07;;;18.90;42.20;;;;;;5057706;28;20909;-57
2022/04/30 04:26:49;;;;;;;2.00;1.90;;;18.90;42.10;;;;;;5059139;28;20918;-57
2022/04/30 04:29:16;;;;;;;2.13;1.93;;;18.90;42.10;;;;;;5059260;28;20428;-57
2022/04/30 04:31:43;;;;;;;2.00;1.90;;;18.90;42.10;;;;;;5057486;28;20230;-57
2022/04/30 04:34:09;;;;;;;2.23;2.13;;;18.90;42.10;;;;;;5065043;28;20461;-57
2022/04/30 04:36:36;;;;;;;1.70;1.60;;;18.90;42.10;;;;;;5059272;28;20464;-58
2022/04/30 04:39:08;;;;;;;2.50;2.13;;;18.90;42.10;;;;;;5058895;28;20431;-58
2022/04/30 04:41:33;;;;;;;2.30;2.20;;;18.90;42.00;;;;;;5058379;28;20418;-57
2022/04/30 04:43:59;;;;;;;2.33;1.93;;;18.90;42.10;;;;;;5056003;28;20415;-58
2022/04/30 04:46:24;;;;;;;2.30;2.20;;;18.90;42.00;;;;;;5060816;28;20234;-58
2022/04/30 04:48:51;;;;;;;3.00;2.80;;;18.90;42.00;;;;;;5063690;28;20259;-58
2022/04/30 04:51:17;;;;;;;2.10;2.00;;;18.90;42.00;;;;;;5058521;28;20210;-57
2022/04/30 04:53:42;;;;;;;2.07;1.97;;;18.90;42.00;;;;;;5057025;28;20784;-57
2022/04/30 04:56:08;;;;;;;2.23;2.13;;;18.90;42.00;;;;;;5059826;28;20229;-57
2022/04/30 04:58:33;;;;;;;2.10;2.00;;;18.90;42.00;;;;;;5061445;28;20756;-58
2022/04/30 05:00:59;;;;;;;2.53;2.03;;;18.90;41.90;;;;;;5058151;28;20214;-59
2022/04/30 05:03:24;;;;;;;2.00;1.80;;;18.90;42.00;;;;;;5064463;28;20221;-58
2022/04/30 05:05:51;;;;;;;2.03;1.93;;;18.90;41.90;;;;;;5057952;28;20254;-57
2022/04/30 05:08:16;;;;;;;2.10;1.90;;;18.80;41.90;;;;;;5056191;28;20214;-57
2022/04/30 05:10:42;;;;;;;2.30;2.10;;;18.90;42.00;;;;;;5061072;28;20433;-57
2022/04/30 05:13:08;;;;;;;2.10;2.00;;;18.90;41.90;;;;;;5059284;28;20225;-58
2022/04/30 05:15:34;;;;;;;2.10;2.00;;;18.90;42.00;;;;;;5061537;28;20238;-57
2022/04/30 05:17:59;;;;;;;2.40;2.30;;;18.90;42.00;;;;;;5059189;28;20419;-57
2022/04/30 05:20:25;;;;;;;2.17;2.07;;;18.90;42.00;;;;;;5054942;28;20214;-58
2022/04/30 05:22:51;;;;;;;1.97;1.87;;;18.90;41.90;;;;;;5059716;28;20301;-57
2022/04/30 05:25:17;;;;;;;2.20;1.93;;;18.90;42.00;;;;;;5059065;28;20791;-57
2022/04/30 05:27:42;;;;;;;2.20;2.10;;;18.90;42.00;;;;;;5057953;28;20226;-57
2022/04/30 05:30:08;;;;;;;2.03;1.93;;;18.90;42.00;;;;;;5056386;28;20218;-58
2022/04/30 05:32:34;;;;;;;2.60;2.40;;;18.90;42.00;;;;;;5058685;28;20329;-58
2022/04/30 05:35:00;;;;;;;2.17;2.07;;;18.90;41.90;;;;;;5059222;28;20505;-60
2022/04/30 05:37:26;;;;;;;2.30;2.20;;;18.90;42.00;;;;;;5056902;28;20335;-59
2022/04/30 05:39:52;;;;;;;2.50;2.40;;;18.90;42.00;;;;;;5056766;28;20428;-57
2022/04/30 05:42:17;;;;;;;2.40;2.30;;;18.90;41.90;;;;;;5070325;28;20426;-59
2022/04/30 05:44:43;;;;;;;1.97;1.87;;;18.90;41.90;;;;;;5063623;28;20218;-59
2022/04/30 05:47:09;;;;;;;2.27;2.17;;;18.90;42.00;;;;;;5057788;28;20227;-57
2022/04/30 05:49:35;;;;;;;2.10;2.00;;;18.90;41.90;;;;;;5055653;28;20695;-59
2022/04/30 05:52:02;;;;;;;2.00;1.90;;;18.90;41.90;;;;;;5054590;28;20662;-57
2022/04/30 05:54:28;;;;;;;2.17;2.07;;;18.90;41.90;;;;;;5055384;28;20238;-60
2022/04/30 05:56:56;;;;;;;2.03;1.93;;;18.90;41.90;;;;;;5066372;28;20489;-58
2022/04/30 05:59:22;;;;;;;2.10;2.00;;;18.90;41.90;;;;;;5053092;28;20226;-58
2022/04/30 06:01:47;;;;;;;2.03;1.83;;;18.90;41.80;;;;;;5058105;28;20840;-57
2022/04/30 06:04:13;;;;;;;2.67;2.47;;;18.90;41.80;;;;;;5056072;28;20217;-57
2022/04/30 06:06:38;;;;;;;2.10;2.00;;;18.90;41.80;;;;;;5057397;28;20300;-57
2022/04/30 06:09:04;;;;;;;1.93;1.83;;;18.90;41.80;;;;;;5060108;28;20732;-58
2022/04/30 06:11:30;;;;;;;2.13;2.03;;;18.90;41.80;;;;;;5058446;28;20872;-58
2022/04/30 06:13:55;;;;;;;2.13;2.03;;;19.00;41.80;;;;;;5057247;28;20241;-57
2022/04/30 06:16:21;;;;;;;1.90;1.80;;;19.00;41.80;;;;;;5058733;28;20702;-57
2022/04/30 06:18:46;;;;;;;2.37;2.17;;;19.00;41.80;;;;;;5054329;28;20300;-56
2022/04/30 06:21:12;;;;;;;1.90;1.80;;;19.00;41.80;;;;;;5057154;28;20267;-57
2022/04/30 06:23:37;;;;;;;2.10;2.00;;;19.00;41.80;;;;;;5058042;28;20242;-55
2022/04/30 06:26:03;;;;;;;1.93;1.83;;;19.00;41.70;;;;;;5060059;28;20231;-56
2022/04/30 06:28:28;;;;;;;2.07;1.97;;;19.00;41.70;;;;;;5053382;28;20222;-57
2022/04/30 06:30:54;;;;;;;2.10;2.00;;;19.00;41.60;;;;;;5058630;28;20275;-57
2022/04/30 06:33:20;;;;;;;2.80;2.00;;;19.00;41.60;;;;;;5062340;28;20217;-57
2022/04/30 06:35:45;;;;;;;2.20;2.10;;;19.00;41.60;;;;;;5056059;28;20230;-57
2022/04/30 06:38:11;;;;;;;2.40;2.20;;;19.00;41.70;;;;;;5056817;28;20211;-57
2022/04/30 06:40:37;;;;;;;2.20;2.10;;;19.10;41.70;;;;;;5054645;28;20309;-57
2022/04/30 06:43:03;;;;;;;2.00;1.90;;;19.10;41.70;;;;;;5062022;28;20670;-56
2022/04/30 06:45:29;;;;;;;3.33;2.00;;;19.10;41.70;;;;;;5058359;28;20467;-57
2022/04/30 06:47:54;;;;;;;1.90;1.80;;;19.10;41.70;;;;;;5057366;28;20221;-57
2022/04/30 06:50:20;;;;;;;2.10;2.00;;;19.10;41.70;;;;;;5058225;28;20297;-60
2022/04/30 06:58:17;;;;;;;2.30;2.10;;;19.10;41.70;;;;;;5053953;28;20509;-58
2022/04/30 07:03:27;;;;;;;2.70;2.10;;;19.10;41.60;;;;;;5055144;28;20440;-59
2022/04/30 07:06:03;;;;;;;2.00;1.90;;;19.10;41.70;;;;;;5057320;28;20931;-59
2022/04/30 07:08:33;;;;;;;2.77;2.13;;;19.10;41.60;;;;;;5087908;28;20450;-60
2022/04/30 07:11:00;;;;;;;1.97;1.87;;;19.10;41.70;;;;;;5060159;28;20441;-59
2022/04/30 07:13:27;;;;;;;2.47;2.00;;;19.10;41.70;;;;;;5058115;28;20438;-57
2022/04/30 07:15:53;;;;;;;2.07;1.97;;;19.10;41.60;;;;;;5056407;28;20453;-61
2022/04/30 07:18:18;;;;;;;2.53;2.40;;;19.10;41.60;;;;;;5051298;28;20443;-58
2022/04/30 07:20:44;;;;;;;2.00;1.90;;;19.10;41.60;;;;;;5058614;28;20276;-59
2022/04/30 07:23:13;;;;;;;2.23;1.90;;;19.10;41.60;;;;;;5060771;28;20218;-59
2022/04/30 07:25:39;;;;;;;2.03;1.93;;;19.10;41.60;;;;;;5058719;28;20269;-60
2022/04/30 07:28:04;;;;;;;2.03;1.93;;;19.10;41.60;;;;;;5051867;28;20470;-60
2022/04/30 07:30:30;;;;;;;2.30;2.20;;;19.10;41.60;;;;;;5053822;28;20218;-60
2022/04/30 07:32:55;;;;;;;2.30;2.10;;;19.10;41.60;;;;;;5062013;28;20244;-60
2022/04/30 07:35:21;;;;;;;2.40;1.90;;;19.10;41.60;;;;;;5059681;28;20225;-60
2022/04/30 07:37:46;;;;;;;1.90;1.80;;;19.10;41.60;;;;;;5058336;28;20234;-60
2022/04/30 07:40:12;;;;;;;1.80;1.70;;;19.10;41.60;;;;;;5052050;28;20232;-60
2022/04/30 07:42:38;;;;;;;2.53;1.70;;;19.10;41.60;;;;;;5059433;28;20247;-60
2022/04/30 07:45:04;;;;;;;3.33;2.53;;;19.10;41.70;;;;;;5059822;28;20271;-60
2022/04/30 07:47:29;;;;;;;2.07;1.97;;;19.10;41.70;;;;;;5061165;28;20226;-60
2022/04/30 07:49:55;;;;;;;2.53;1.90;;;19.10;41.70;;;;;;5060575;28;20450;-58
2022/04/30 07:52:21;;;;;;;2.63;1.80;;;19.10;41.60;;;;;;5059208;28;20215;-59
2022/04/30 07:54:47;;;;;;;2.40;2.30;;;19.10;41.70;;;;;;5057974;28;22308;-58
2022/04/30 07:57:12;;;;;;;2.20;2.10;;;19.10;42.50;;;;;;5062562;28;20218;-58
2022/04/30 07:59:38;;;;;;;2.00;1.90;;;19.10;41.70;;;;;;5062107;28;20317;-58
2022/04/30 08:02:04;;;;;;;2.70;2.10;;;19.10;41.70;;;;;;5063641;28;20214;-58
2022/04/30 08:04:30;;;;;;;3.13;2.77;;;19.10;41.80;;;;;;5061555;28;20584;-58
2022/04/30 08:06:56;;;;;;;2.23;2.03;;;19.10;41.70;;;;;;5059688;28;20461;-58
2022/04/30 08:09:21;;;;;;;2.30;2.20;;;19.10;41.70;;;;;;5062817;28;20225;-59
2022/04/30 08:11:47;;;;;;;2.27;2.07;;;19.10;41.70;;;;;;5058932;28;20311;-58
2022/04/30 08:14:13;;;;;;;2.30;2.10;;;19.10;41.70;;;;;;5064116;28;20226;-58
2022/04/30 08:16:38;;;;;;;2.27;2.07;;;19.10;41.70;;;;;;5047753;28;20323;-59
2022/04/30 08:19:04;;;;;;;2.30;2.10;;;19.10;41.70;;;;;;5075832;28;20219;-58
2022/04/30 08:21:30;;;;;;;2.23;2.13;;;19.10;41.70;;;;;;5060108;28;20675;-59
2022/04/30 08:23:55;;;;;;;3.83;2.30;;;19.10;41.70;;;;;;5059248;28;20226;-58
2022/04/30 08:26:21;;;;;;;2.67;2.10;;;19.10;41.70;;;;;;5057621;28;20461;-58
2022/04/30 08:28:46;;;;;;;2.53;2.33;;;19.10;41.70;;;;;;5060348;28;20583;-58
2022/04/30 08:31:12;;;;;;;2.23;2.07;;;19.10;41.70;;;;;;5061328;28;20667;-58
2022/04/30 08:33:38;;;;;;;2.43;2.20;;;19.10;41.70;;;;;;5059740;28;20221;-58
2022/04/30 08:36:04;;;;;;;2.70;2.50;;;19.10;41.80;;;;;;5063794;28;20339;-58
2022/04/30 08:38:30;;;;;;;2.40;2.20;;;19.10;42.50;;;;;;5055658;28;20218;-59
2022/04/30 08:40:55;;;;;;;3.47;3.17;;;19.10;41.70;;;;;;5059231;28;20896;-58
2022/04/30 08:43:21;;;;;;;2.43;2.30;;;19.10;41.70;;;;;;5060081;28;20243;-58
2022/04/30 08:45:47;;;;;;;2.60;2.40;;;19.10;41.70;;;;;;5059642;28;20785;-58
2022/04/30 08:48:15;;;;;;;2.40;2.23;;;19.10;41.70;;;;;;5058653;28;20222;-58
2022/04/30 08:50:43;;;;;;;2.53;2.43;;;19.10;41.70;;;;;;5058104;28;20455;-58
2022/04/30 08:53:09;;;;;;;2.67;2.47;;;19.10;41.70;;;;;;5059471;28;20426;-58
2022/04/30 08:55:35;;;;;;;2.40;2.30;;;19.10;41.70;;;;;;5063370;28;20447;-58
2022/04/30 08:58:02;;;;;;;2.93;2.73;;;19.10;41.70;;;;;;5059808;28;20929;-58
2022/04/30 09:00:28;;;;;;;3.60;2.50;;;19.10;41.80;;;;;;5056409;28;20241;-60
2022/04/30 09:02:54;;;;;;;3.30;3.00;;;19.10;41.70;;;;;;5059429;28;20906;-58
2022/04/30 09:05:21;;;;;;;2.70;2.50;;;19.10;41.70;;;;;;5060543;28;20566;-58
2022/04/30 09:07:57;;;;;;;2.70;2.50;;;19.10;41.80;;;;;;5060766;28;20441;-58
2022/04/30 09:10:25;;;;;;;2.70;2.40;;;19.10;41.70;;;;;;5057995;28;20442;-58
2022/04/30 09:12:52;;;;;;;2.60;2.50;;;19.10;41.70;;;;;;5057939;28;20454;-58
2022/04/30 09:15:18;;;;;;;2.97;2.77;;;19.10;41.70;;;;;;5057554;28;20538;-58
2022/04/30 09:17:54;;;;;;;3.10;2.90;;;19.10;41.70;;;;;;5059307;28;20433;-58
2022/04/30 09:20:20;;;;;;;3.30;2.80;;;19.10;41.80;;;;;;5059972;28;20229;-58
2022/04/30 09:22:45;;;;;;;3.07;2.87;;;19.10;41.80;;;;;;5056970;28;20417;-58
2022/04/30 09:25:17;;;;;;;3.20;3.00;;;19.10;41.80;;;;;;5061217;28;20218;-58
2022/04/30 09:27:45;;;;;;;3.43;3.00;;;19.10;41.80;;;;;;5063577;28;20359;-58
2022/04/30 09:30:24;;;;;;;3.20;3.00;;;19.10;42.60;;;;;;5062725;28;20453;-59
2022/04/30 09:32:59;;;;;;;2.80;2.60;;;19.10;41.80;;;;;;5061563;28;20450;-58
2022/04/30 09:38:10;;;;;;;3.10;2.90;;;19.10;41.80;;;;;;5061871;28;20440;-58
2022/04/30 09:40:35;;;;;;;5.67;3.37;;;19.10;41.80;;;;;;5057144;28;20661;-58
2022/04/30 09:43:01;;;;;;;3.80;3.23;;;19.10;41.80;;;;;;5065101;28;20226;-58
2022/04/30 09:45:32;;;;;;;2.50;2.40;;;19.10;41.80;;;;;;5068437;28;20237;-58
2022/04/30 09:47:59;;;;;;;4.70;3.07;;;19.10;41.80;;;;;;5057811;28;20222;-60
2022/04/30 09:56:05;;;;;;;3.00;2.90;;;19.10;41.80;;;;;;5059708;28;21281;-58
2022/04/30 09:58:35;;;;;;;3.40;3.20;;;19.10;41.80;;;;;;5059728;28;20418;-59
2022/04/30 10:01:02;;;;;;;3.43;3.23;;;19.10;41.70;;;;;;5059062;28;20418;-58
2022/04/30 10:03:31;;;;;;;3.17;2.97;;;19.10;41.80;;;;;;5055863;28;20443;-58
2022/04/30 10:06:06;;;;;;;3.43;3.20;;;19.10;41.70;;;;;;5059966;28;20449;-58
2022/04/30 10:08:37;;;;;;;3.20;3.00;;;19.10;41.70;;;;;;5062305;28;20981;-58
2022/04/30 10:11:32;;;;;;;3.93;3.67;;;19.10;41.70;;;;;;5056607;28;20456;-59
2022/04/30 10:14:24;;;;;;;3.20;3.00;;;19.10;41.70;;;;;;5054262;28;20446;-59
2022/04/30 10:19:35;;;;;;;3.00;2.80;;;19.10;41.70;;;;;;5061180;28;20458;-58
2022/04/30 10:22:13;;;;;;;3.30;3.10;;;19.10;41.70;;;;;;5056675;28;20444;-58
2022/04/30 10:24:45;;;;;;;3.10;2.90;;;19.10;41.70;;;;;;5060064;28;20476;-62
2022/04/30 10:27:10;;;;;;;3.10;2.90;;;19.10;41.60;;;;;;5056182;28;20429;-60
2022/04/30 10:29:36;;;;;;;3.00;2.80;;;19.10;41.60;;;;;;5062279;28;21033;-59
2022/04/30 10:32:02;;;;;;;3.63;3.13;;;19.10;41.60;;;;;;5058222;28;20652;-59
2022/04/30 10:34:29;;;;;;;3.60;3.40;;;19.10;41.60;;;;;;5055943;28;20222;-59
2022/04/30 10:36:55;;;;;;;2.90;2.80;;;19.10;41.50;;;;;;5057680;28;20563;-61
2022/04/30 10:39:21;;;;;;;3.33;3.13;;;19.10;41.50;;;;;;5059933;28;20459;-60
2022/04/30 10:41:52;;;;;;;3.97;3.67;;;19.10;42.20;;;;;;5057843;28;20230;-60
2022/04/30 10:44:28;;;;;;;3.70;3.50;;;19.10;41.40;;;;;;5055959;28;20230;-59
2022/04/30 10:46:54;;;;;;;4.13;3.83;;;19.10;41.40;;;;;;5059416;28;20437;-60
2022/04/30 10:49:20;;;;;;;3.53;3.33;;;19.10;41.40;;;;;;5058063;28;20468;-59
2022/04/30 10:51:45;;;;;;;3.63;3.33;;;19.00;41.30;;;;;;5059385;28;20230;-61
2022/04/30 10:54:18;;;;;;;3.60;3.40;;;19.10;41.30;;;;;;5063539;28;20324;-61
2022/04/30 10:56:45;;;;;;;3.57;3.37;;;19.10;41.30;;;;;;5060508;28;20566;-60
2022/04/30 10:59:21;;;;;;;3.50;3.30;;;19.10;41.30;;;;;;5058523;28;20819;-60
2022/04/30 11:01:50;;;;;;;3.60;3.40;;;19.00;41.20;;;;;;5055251;28;20409;-60
2022/04/30 11:04:20;;;;;;;3.50;3.30;;;19.00;41.20;;;;;;5054415;28;20459;-60
2022/04/30 11:06:51;;;;;;;4.03;3.83;;;19.00;41.20;;;;;;5057676;28;20442;-60
2022/04/30 11:09:18;;;;;;;4.33;4.13;;;19.00;41.20;;;;;;5059555;28;20558;-60
2022/04/30 11:11:48;;;;;;;4.37;4.07;;;19.00;41.20;;;;;;5062147;28;20425;-60
2022/04/30 11:14:16;;;;;;;4.37;4.07;;;19.00;41.10;;;;;;5057060;28;20783;-60
2022/04/30 11:16:47;;;;;;;3.83;3.63;;;19.00;41.10;;;;;;5058764;28;20450;-60
2022/04/30 11:19:23;;;;;;;3.97;3.77;;;19.00;41.10;;;;;;5058629;28;20425;-60
2022/04/30 11:21:53;;;;;;;3.90;3.70;;;19.00;41.10;;;;;;5059034;28;20444;-60
2022/04/30 11:24:27;;;;;;;4.20;4.00;;;19.00;41.10;;;;;;5059143;28;20425;-60
2022/04/30 11:26:55;;;;;;;5.17;4.67;;;19.00;41.10;;;;;;5064248;28;20436;-60
2022/04/30 11:29:22;;;;;;;4.10;3.90;;;19.00;41.10;;;;;;5062792;28;20452;-60
2022/04/30 11:31:51;;;;;;;3.90;3.60;;;19.00;41.10;;;;;;5065172;28;20862;-60
2022/04/30 11:34:18;;;;;;;4.10;3.90;;;19.00;41.10;;;;;;5058620;28;20421;-60
2022/04/30 11:36:44;;;;;;;4.00;3.80;;;19.00;41.10;;;;;;5061430;28;20459;-59
2022/04/30 11:39:11;;;;;;;4.20;3.90;;;19.00;41.10;;;;;;5056135;28;21000;-59
2022/04/30 11:41:41;;;;;;;5.53;2.93;;;19.00;41.10;;;;;;5060798;28;20460;-58
2022/04/30 11:44:09;;;;;;;2.70;2.60;;;19.00;41.70;;;;;;5059980;28;20436;-58
2022/04/30 11:46:40;;;;;;;2.77;2.57;;;19.00;40.80;;;;;;5058814;28;20517;-58
2022/04/30 11:49:32;;;;;;;3.10;2.87;;;19.10;40.70;;;;;;5063619;28;20458;-58
2022/04/30 11:51:59;;;;;;;3.17;2.87;;;19.10;40.60;;;;;;5055202;28;20452;-59
2022/04/30 11:54:27;;;;;;;2.87;2.67;;;19.10;40.40;;;;;;5061834;28;20442;-58
2022/04/30 11:56:53;;;;;;;3.70;2.80;;;19.10;40.20;;;;;;5059521;28;20454;-58
2022/04/30 11:59:48;;;;;;;4.03;3.83;;;19.10;40.10;;;;;;5062854;28;20429;-59
2022/04/30 12:02:15;;;;;;;2.90;2.70;;;19.10;40.00;;;;;;5049024;28;20223;-59
2022/04/30 12:04:41;;;;;;;3.90;3.70;;;19.10;39.80;;;;;;5061783;28;20516;-59
2022/04/30 12:07:08;;;;;;;3.50;3.30;;;19.10;40.00;;;;;;5060140;28;20445;-59
2022/04/30 12:09:38;;;;;;;4.00;3.80;;;19.10;40.00;;;;;;5059402;28;20435;-59
2022/04/30 12:12:23;;;;;;;4.30;4.00;;;19.10;40.20;;;;;;5061359;28;20774;-59
2022/04/30 12:14:51;;;;;;;3.70;3.50;;;19.10;40.20;;;;;;5056844;28;20467;-59
2022/04/30 12:17:16;;;;;;;5.13;3.83;;;19.10;40.40;;;;;;5060443;28;20989;-59
2022/04/30 12:25:20;;;;;;;3.73;3.43;;;19.00;40.50;;;;;;5054394;28;20429;-59
2022/04/30 12:27:53;;;;;;;4.73;4.33;;;19.00;41.30;;;;;;5065011;28;20509;-59
2022/04/30 12:30:21;;;;;;;4.53;4.23;;;19.00;40.60;;;;;;5094838;28;20428;-59
2022/04/30 12:32:58;;;;;;;8.83;4.23;;;19.00;40.60;;;;;;5060787;28;20439;-60
2022/04/30 12:35:38;;;;;;;3.93;3.73;;;19.00;40.60;;;;;;5060127;28;20422;-60
2022/04/30 12:38:10;;;;;;;4.03;3.73;;;19.00;40.70;;;;;;5055959;28;20524;-60
2022/04/30 12:40:37;;;;;;;4.27;4.07;;;19.00;40.70;;;;;;5062415;28;20432;-59
2022/04/30 12:43:04;;;;;;;4.03;3.83;;;19.00;40.70;;;;;;5063624;28;20417;-59
2022/04/30 12:45:31;;;;;;;4.50;4.17;;;19.00;40.80;;;;;;5056239;28;20962;-59
2022/04/30 12:47:57;;;;;;;3.80;3.60;;;19.00;40.70;;;;;;5057090;28;20474;-58
2022/04/30 12:50:24;;;;;;;4.87;4.57;;;19.00;40.70;;;;;;5063439;28;20869;-58
2022/04/30 12:52:50;;;;;;;4.40;4.00;;;19.00;40.80;;;;;;5066249;28;20433;-59
2022/04/30 12:55:18;;;;;;;3.87;3.67;;;19.00;40.80;;;;;;5057983;28;20800;-58
2022/04/30 12:57:45;;;;;;;3.73;3.53;;;19.00;40.80;;;;;;5058500;28;20222;-58
2022/04/30 13:00:12;;;;;;;4.47;4.27;;;19.00;40.80;;;;;;5060256;28;20436;-58
2022/04/30 13:02:39;;;;;;;4.03;3.83;;;19.00;40.80;;;;;;5061172;28;20798;-58
2022/04/30 13:05:08;;;;;;;3.57;3.37;;;19.00;40.80;;;;;;5061375;28;20425;-57
2022/04/30 13:07:36;;;;;;;3.87;3.67;;;19.00;40.80;;;;;;5057559;28;20541;-58
2022/04/30 13:15:30;;;;;;;9.20;4.83;;;19.00;40.80;;;;;;5058180;28;20931;-58
2022/04/30 13:17:56;;;;;;;19.70;5.23;;;19.00;40.80;;;;;;5058978;28;20417;-58
2022/04/30 13:20:22;;;;;;;34.00;5.43;;;19.00;40.80;;;;;;5058843;28;20221;-58
2022/04/30 13:22:49;;;;;;;13.10;4.97;;;19.00;40.70;;;;;;5058084;28;20422;-58
2022/04/30 13:25:16;;;;;;;12.37;5.27;;;19.10;40.70;;;;;;5058579;28;20222;-58
2022/04/30 13:27:42;;;;;;;17.93;4.87;;;19.10;40.60;;;;;;5061622;28;20421;-58
2022/04/30 13:30:08;;;;;;;13.43;4.60;;;19.10;40.70;;;;;;5057118;28;20432;-58
2022/04/30 13:32:34;;;;;;;12.93;4.93;;;19.10;40.70;;;;;;5063224;28;20830;-58
2022/04/30 13:35:00;;;;;;;14.37;4.93;;;19.10;40.70;;;;;;5057961;28;20856;-59
2022/04/30 13:37:25;;;;;;;9.17;5.10;;;19.10;40.70;;;;;;5056396;28;20226;-58